Time;durP1;ratioP1;P1;durP2;ratioP2;P2;SDS_P1;SDS_P2;PMS_P1;PMS_P2;Temp;Humidity;BMP_temperature;BMP_pressure;BME280_temperature;BME280_humidity;BME280_pressure;Samples;Min_cycle;Max_cycle;Signal;HPM_P1;HPM_P2
2022/12/17 13:06:40;;;;;;;;;;;-2.50;99.90;;;;;;5042231;28;19935;-76
2022/12/17 13:09:19;;;;;;;;;;;-2.40;99.90;;;;;;5036292;28;19940;-76
2022/12/17 13:11:47;;;;;;;;;;;-2.40;99.90;;;;;;5037153;28;19979;-76
2022/12/17 13:14:16;;;;;;;;;;;-2.40;99.90;;;;;;5038694;28;20628;-76
2022/12/17 13:16:50;;;;;;;;;;;-2.40;99.90;;;;;;5036007;28;19932;-76
2022/12/17 13:19:21;;;;;;;;;;;-2.40;99.80;;;;;;5035803;28;20297;-75
2022/12/17 13:21:48;;;;;;;;;;;-2.40;99.80;;;;;;5037741;28;19929;-76
2022/12/17 13:24:23;;;;;;;;;;;-2.40;99.80;;;;;;5038375;28;19929;-76
2022/12/17 13:26:50;;;;;;;;;;;-2.40;99.80;;;;;;5041352;28;20099;-76
2022/12/17 13:29:23;;;;;;;;;;;-2.40;99.80;;;;;;5040261;28;19933;-75
2022/12/17 13:31:57;;;;;;;;;;;-2.40;99.80;;;;;;5038401;28;20054;-76
2022/12/17 13:34:27;;;;;;;;;;;-2.40;99.80;;;;;;5041461;28;19929;-76
2022/12/17 13:36:57;;;;;;;;;;;-2.40;99.80;;;;;;5041877;28;20427;-76
2022/12/17 13:39:29;;;;;;;;;;;-2.40;99.80;;;;;;5042988;28;19929;-76
2022/12/17 13:41:57;;;;;;;;;;;-2.30;99.80;;;;;;5033474;28;19939;-76
2022/12/17 13:44:26;;;;;;;;;;;-2.30;99.70;;;;;;5037794;28;20082;-75
2022/12/17 13:46:53;;;;;;;;;;;-2.30;99.70;;;;;;5041585;28;19928;-76
2022/12/17 13:49:20;;;;;;;;;;;-2.30;99.70;;;;;;5040220;28;20313;-76
2022/12/17 13:51:48;;;;;;;;;;;-2.20;99.60;;;;;;5040489;28;19933;-76
2022/12/17 13:54:15;;;;;;;;;;;-2.20;99.60;;;;;;5036430;28;19940;-76
2022/12/17 13:56:42;;;;;;;;;;;-2.20;99.50;;;;;;5036495;28;19929;-76
2022/12/17 13:59:16;;;;;;;;;;;-2.20;99.40;;;;;;5034763;28;19929;-76
2022/12/17 14:01:48;;;;;;;;;;;-2.20;99.40;;;;;;5031432;28;20310;-76
2022/12/17 14:04:22;;;;;;;;;;;-2.20;99.40;;;;;;5041413;28;19936;-76
2022/12/17 14:06:49;;;;;;;;;;;-2.20;99.40;;;;;;5033055;28;20382;-75
2022/12/17 14:09:17;;;;;;;;;;;-2.20;99.40;;;;;;5038955;28;19936;-75
2022/12/17 14:14:30;;;;;;;;;;;-2.20;99.40;;;;;;5038781;28;20074;-77
2022/12/17 14:16:58;;;;;;;;;;;-2.30;99.40;;;;;;5034001;28;19929;-76
2022/12/17 14:19:25;;;;;;;;;;;-2.30;99.40;;;;;;5038128;28;20308;-76
2022/12/17 14:21:51;;;;;;;;;;;-2.30;99.50;;;;;;5037123;28;19940;-76
2022/12/17 14:24:19;;;;;;;;;;;-2.30;99.50;;;;;;5036706;28;19963;-76
2022/12/17 14:26:49;;;;;;;;;;;-2.30;99.50;;;;;;5038187;28;19935;-76
2022/12/17 14:29:21;;;;;;;;;;;-2.30;99.50;;;;;;5039663;28;19929;-76
2022/12/17 14:31:51;;;;;;;;;;;-2.40;99.50;;;;;;5033485;28;20358;-76
2022/12/17 14:34:19;;;;;;;;;;;-2.40;99.60;;;;;;5037978;28;19928;-75
2022/12/17 14:36:47;;;;;;;;;;;-2.40;99.60;;;;;;5041406;28;19929;-76
2022/12/17 14:39:17;;;;;;;;;;;-2.40;99.60;;;;;;5039817;28;20171;-76
2022/12/17 14:44:29;;;;;;;;;;;-2.40;99.70;;;;;;5040186;28;19927;-76
2022/12/17 14:47:06;;;;;;;;;;;-2.40;99.80;;;;;;5039444;28;19940;-77
2022/12/17 14:49:34;;;;;;;;;;;-2.40;99.80;;;;;;5041781;28;20032;-76
2022/12/17 14:52:12;;;;;;;;;;;-2.50;99.90;;;;;;5041350;28;19929;-76
2022/12/17 14:54:44;;;;;;;;;;;-2.50;99.90;;;;;;5040515;28;19928;-76
2022/12/17 14:57:18;;;;;;;;;;;-2.40;99.90;;;;;;5041927;28;19928;-75
2022/12/17 14:59:45;;;;;;;;;;;-2.50;99.90;;;;;;5042700;28;19936;-75
2022/12/17 15:02:17;;;;;;;;;;;-2.50;99.90;;;;;;5035717;28;20452;-76
2022/12/17 15:04:46;;;;;;;;;;;-2.50;99.90;;;;;;5035329;28;20420;-76
2022/12/17 15:07:13;;;;;;;;;;;-2.60;99.90;;;;;;5039679;28;19936;-76
2022/12/17 15:09:40;;;;;;;;;;;-2.60;99.90;;;;;;5041245;28;19968;-76
2022/12/17 15:12:07;;;;;;;;;;;-2.50;99.90;;;;;;5038211;28;20277;-76
2022/12/17 15:14:34;;;;;;;;;;;-2.50;99.90;;;;;;5037597;28;19933;-76
2022/12/17 15:17:00;;;;;;;;;;;-2.60;99.90;;;;;;5038025;28;20312;-76
2022/12/17 15:19:27;;;;;;;;;;;-2.60;99.90;;;;;;5031496;28;19929;-76
2022/12/17 15:21:55;;;;;;;;;;;-2.60;99.90;;;;;;5038455;28;19944;-75
2022/12/17 15:24:21;;;;;;;;;;;-2.60;99.90;;;;;;5035368;28;19933;-76
2022/12/17 15:26:48;;;;;;;;;;;-2.70;99.90;;;;;;5039950;28;19928;-76
2022/12/17 15:29:15;;;;;;;;;;;-2.70;99.90;;;;;;5040650;28;20016;-76
2022/12/17 15:31:42;;;;;;;;;;;-2.70;99.90;;;;;;5038683;28;19939;-76
2022/12/17 15:34:09;;;;;;;;;;;-2.70;99.90;;;;;;5041245;28;19941;-76
2022/12/17 15:36:36;;;;;;;;;;;-2.80;99.90;;;;;;5040506;28;20012;-75
2022/12/17 15:39:05;;;;;;;;;;;-2.70;99.90;;;;;;5040215;28;20420;-75
2022/12/17 15:44:16;;;;;;;;;;;-2.80;99.90;;;;;;5038007;28;20053;-76
2022/12/17 15:46:43;;;;;;;;;;;-2.90;99.90;;;;;;5034689;28;19944;-76
2022/12/17 15:49:09;;;;;;;;;;;-2.90;99.90;;;;;;5036921;28;19932;-76
2022/12/17 15:51:36;;;;;;;;;;;-2.90;99.90;;;;;;5031933;28;19928;-76
2022/12/17 15:54:04;;;;;;;;;;;-2.90;99.90;;;;;;5022554;28;19933;-76
2022/12/17 15:56:30;;;;;;;;;;;-2.90;99.90;;;;;;5034228;28;19929;-76
2022/12/17 15:58:57;;;;;;;;;;;-3.00;99.90;;;;;;5034497;28;19929;-76
2022/12/17 16:01:24;;;;;;;;;;;-3.00;99.90;;;;;;5031157;28;19932;-76
2022/12/17 16:03:50;;;;;;;;;;;-3.00;99.90;;;;;;5034289;28;19936;-76
2022/12/17 16:06:17;;;;;;;;;;;-3.00;99.90;;;;;;5035689;28;20308;-76
2022/12/17 16:08:43;;;;;;;;;;;-3.00;99.90;;;;;;5034338;28;20275;-77
2022/12/17 16:11:13;;;;;;;;;;;-3.00;99.90;;;;;;5030106;28;19940;-75
2022/12/17 16:13:40;;;;;;;;;;;-3.00;99.90;;;;;;5033151;28;20321;-76
2022/12/17 16:16:07;;;;;;;;;;;-3.10;99.90;;;;;;5037554;28;19944;-76
2022/12/17 16:18:35;;;;;;;;;;;-3.10;99.90;;;;;;5034566;28;20401;-76
2022/12/17 16:21:02;;;;;;;;;;;-3.10;99.90;;;;;;5034429;28;19955;-76
2022/12/17 16:23:29;;;;;;;;;;;-3.10;99.90;;;;;;5037339;28;19929;-76
2022/12/17 16:25:56;;;;;;;;;;;-3.10;99.90;;;;;;5039401;28;19936;-76
2022/12/17 16:28:24;;;;;;;;;;;-3.10;99.90;;;;;;5036236;28;19980;-76
2022/12/17 16:31:01;;;;;;;;;;;-3.10;99.90;;;;;;5040229;28;19971;-76
2022/12/17 16:33:30;;;;;;;;;;;-3.20;99.90;;;;;;5039634;28;19936;-76
2022/12/17 16:35:57;;;;;;;;;;;-3.20;99.90;;;;;;5043268;28;19940;-76
2022/12/17 16:38:24;;;;;;;;;;;-3.20;99.90;;;;;;5040971;28;19929;-76
2022/12/17 16:40:53;;;;;;;;;;;-3.20;99.90;;;;;;5041649;28;19928;-76
2022/12/17 16:43:20;;;;;;;;;;;-3.20;99.90;;;;;;5040041;28;20525;-76
2022/12/17 16:45:49;;;;;;;;;;;-3.30;99.90;;;;;;5039983;28;19928;-76
2022/12/17 16:48:16;;;;;;;;;;;-3.30;99.90;;;;;;5039435;28;19928;-76
2022/12/17 16:50:42;;;;;;;;;;;-3.30;99.90;;;;;;5041609;28;20483;-75
2022/12/17 16:53:09;;;;;;;;;;;-3.30;99.90;;;;;;5042262;28;20064;-76
2022/12/17 16:55:39;;;;;;;;;;;-3.30;99.90;;;;;;5039950;28;19933;-76
2022/12/17 16:58:05;;;;;;;;;;;-3.30;99.90;;;;;;5044592;28;19929;-75
2022/12/17 17:00:32;;;;;;;;;;;-3.40;99.90;;;;;;5040645;28;19940;-76
2022/12/17 17:03:00;;;;;;;;;;;-3.40;99.90;;;;;;5039891;28;19928;-76
2022/12/17 17:05:27;;;;;;;;;;;-3.40;99.90;;;;;;5041184;28;19929;-75
2022/12/17 17:07:53;;;;;;;;;;;-3.40;99.90;;;;;;5042296;28;19929;-75
2022/12/17 17:10:20;;;;;;;;;;;-3.40;99.90;;;;;;5039493;28;19935;-76
2022/12/17 17:12:46;;;;;;;;;;;-3.40;99.90;;;;;;5040348;28;19940;-76
2022/12/17 17:15:13;;;;;;;;;;;-3.40;99.90;;;;;;5043424;28;20367;-75
2022/12/17 17:17:40;;;;;;;;;;;-3.50;99.90;;;;;;5041938;28;19929;-75
2022/12/17 17:20:08;;;;;;;;;;;-3.50;99.90;;;;;;5041382;28;19928;-76
2022/12/17 17:22:35;;;;;;;;;;;-3.50;99.90;;;;;;5041486;28;20224;-76
2022/12/17 17:25:01;;;;;;;;;;;-3.50;99.90;;;;;;5042352;28;19928;-76
2022/12/17 17:27:28;;;;;;;;;;;-3.50;99.90;;;;;;5042786;28;19939;-76
2022/12/17 17:29:55;;;;;;;;;;;-3.50;99.90;;;;;;5039804;28;19940;-76
2022/12/17 17:32:21;;;;;;;;;;;-3.50;99.90;;;;;;5040543;28;20012;-76
2022/12/17 17:34:48;;;;;;;;;;;-3.60;99.90;;;;;;5038885;28;19933;-76
2022/12/17 17:37:16;;;;;;;;;;;-3.60;99.90;;;;;;5042930;28;19937;-75
2022/12/17 17:39:43;;;;;;;;;;;-3.60;99.90;;;;;;5038972;28;20698;-76
2022/12/17 17:42:09;;;;;;;;;;;-3.60;99.90;;;;;;5034848;28;19928;-75
2022/12/17 17:44:37;;;;;;;;;;;-3.60;99.90;;;;;;5040437;28;19933;-75
2022/12/17 17:47:03;;;;;;;;;;;-3.60;99.90;;;;;;5039278;28;20515;-76
2022/12/17 17:49:30;;;;;;;;;;;-3.60;99.90;;;;;;5041500;28;20312;-76
2022/12/17 17:51:57;;;;;;;;;;;-3.70;99.90;;;;;;5038192;28;19928;-76
2022/12/17 17:54:25;;;;;;;;;;;-3.70;99.90;;;;;;5042710;28;19929;-75
2022/12/17 17:56:51;;;;;;;;;;;-3.70;99.90;;;;;;5042484;28;19939;-76
2022/12/17 17:59:18;;;;;;;;;;;-3.70;99.90;;;;;;5036363;28;19935;-76
2022/12/17 18:01:45;;;;;;;;;;;-3.80;99.90;;;;;;5036219;28;20023;-74
2022/12/17 18:04:13;;;;;;;;;;;-3.70;99.90;;;;;;5039555;28;20397;-77
2022/12/17 18:06:40;;;;;;;;;;;-3.80;99.90;;;;;;5040415;28;19928;-77
2022/12/17 18:09:07;;;;;;;;;;;-3.80;99.90;;;;;;5036729;28;19929;-76
2022/12/17 18:11:35;;;;;;;;;;;-3.80;99.90;;;;;;5039896;28;19929;-77
2022/12/17 18:14:01;;;;;;;;;;;-3.80;99.90;;;;;;5038210;28;20388;-76
2022/12/17 18:16:29;;;;;;;;;;;-3.80;99.90;;;;;;5037914;28;19941;-77
2022/12/17 18:18:57;;;;;;;;;;;-3.90;99.90;;;;;;5036273;28;20372;-74
2022/12/17 18:21:24;;;;;;;;;;;-3.80;99.90;;;;;;5041503;28;19935;-77
2022/12/17 18:23:54;;;;;;;;;;;-3.90;99.90;;;;;;5039588;28;19929;-76
2022/12/17 18:26:21;;;;;;;;;;;-3.90;99.90;;;;;;5041051;28;19933;-77
2022/12/17 18:28:49;;;;;;;;;;;-3.90;99.90;;;;;;5036631;28;19935;-74
2022/12/17 18:31:17;;;;;;;;;;;-3.90;99.90;;;;;;5038618;28;19932;-77
2022/12/17 18:33:45;;;;;;;;;;;-3.90;99.90;;;;;;5037261;28;20024;-75
2022/12/17 18:36:12;;;;;;;;;;;-4.00;99.90;;;;;;5034805;28;19928;-77
2022/12/17 18:38:39;;;;;;;;;;;-4.00;99.90;;;;;;5042270;28;20379;-74
2022/12/17 18:43:21;;;;;;;;;;;-4.00;99.90;;;;;;5036599;28;19933;-76
2022/12/17 18:43:55;;;;;;;;;;;-4.00;99.90;;;;;;5040017;28;19946;-76
2022/12/17 18:46:22;;;;;;;;;;;-4.00;99.90;;;;;;5035544;28;20776;-77
2022/12/17 18:48:50;;;;;;;;;;;-4.00;99.90;;;;;;5039545;28;20546;-77
2022/12/17 18:51:17;;;;;;;;;;;-4.00;99.90;;;;;;5041021;28;19936;-77
2022/12/17 18:53:43;;;;;;;;;;;-4.10;99.90;;;;;;5039052;28;19933;-76
2022/12/17 18:56:11;;;;;;;;;;;-4.10;99.90;;;;;;5037674;28;19928;-76
2022/12/17 18:58:37;;;;;;;;;;;-4.10;99.90;;;;;;5040744;28;19929;-76
2022/12/17 19:01:06;;;;;;;;;;;-4.10;99.90;;;;;;5039209;28;19928;-76
2022/12/17 19:03:32;;;;;;;;;;;-4.10;99.90;;;;;;5036211;28;19928;-77
2022/12/17 19:05:59;;;;;;;;;;;-4.10;99.90;;;;;;5039104;28;19928;-77
2022/12/17 19:08:26;;;;;;;;;;;-4.10;99.90;;;;;;5040153;28;20801;-77
2022/12/17 19:10:52;;;;;;;;;;;-4.20;99.90;;;;;;5036626;28;19932;-77
2022/12/17 19:13:19;;;;;;;;;;;-4.20;99.90;;;;;;5038574;28;20305;-76
2022/12/17 19:15:45;;;;;;;;;;;-4.20;99.90;;;;;;5036864;28;20309;-77
2022/12/17 19:18:13;;;;;;;;;;;-4.20;99.90;;;;;;5038096;28;19928;-77
2022/12/17 19:20:40;;;;;;;;;;;-4.20;99.90;;;;;;5038269;28;19929;-76
2022/12/17 19:23:07;;;;;;;;;;;-4.20;99.90;;;;;;5039876;28;19936;-77
2022/12/17 19:25:33;;;;;;;;;;;-4.20;99.90;;;;;;5041102;28;20384;-77
2022/12/17 19:28:00;;;;;;;;;;;-4.20;99.90;;;;;;5039719;28;20184;-77
2022/12/17 19:30:26;;;;;;;;;;;-4.30;99.90;;;;;;5036844;28;19952;-77
2022/12/17 19:32:53;;;;;;;;;;;-4.30;99.90;;;;;;5038191;28;20420;-77
2022/12/17 19:35:21;;;;;;;;;;;-4.30;99.90;;;;;;5034282;28;20428;-77
2022/12/17 19:37:48;;;;;;;;;;;-4.30;99.90;;;;;;5035137;28;19928;-77
2022/12/17 19:40:15;;;;;;;;;;;-4.30;99.90;;;;;;5033345;28;19935;-77
2022/12/17 19:42:42;;;;;;;;;;;-4.30;99.90;;;;;;5039303;28;19929;-76
2022/12/17 19:45:08;;;;;;;;;;;-4.40;99.90;;;;;;5037210;28;19929;-76
2022/12/17 19:47:35;;;;;;;;;;;-4.40;99.90;;;;;;5038138;28;20031;-76
2022/12/17 19:50:01;;;;;;;;;;;-4.40;99.90;;;;;;5039933;28;19933;-76
2022/12/17 19:52:29;;;;;;;;;;;-4.40;99.90;;;;;;5037957;28;19933;-75
2022/12/17 19:54:56;;;;;;;;;;;-4.40;99.90;;;;;;5040241;28;19929;-76
2022/12/17 19:57:22;;;;;;;;;;;-4.40;99.90;;;;;;5038415;28;20420;-75
2022/12/17 19:59:49;;;;;;;;;;;-4.40;99.90;;;;;;5039634;28;20023;-76
2022/12/17 20:02:16;;;;;;;;;;;-4.40;99.90;;;;;;5034871;28;19928;-75
2022/12/17 20:04:42;;;;;;;;;;;-4.50;99.80;;;;;;5038600;28;19963;-75
2022/12/17 20:07:09;;;;;;;;;;;-4.50;99.80;;;;;;5036587;28;19929;-76
2022/12/17 20:09:37;;;;;;;;;;;-4.50;99.80;;;;;;5040166;28;19936;-76
2022/12/17 20:12:03;;;;;;;;;;;-4.50;99.80;;;;;;5037373;28;19929;-76
2022/12/17 20:14:30;;;;;;;;;;;-4.50;99.80;;;;;;5033190;28;19935;-76
2022/12/17 20:16:57;;;;;;;;;;;-4.50;99.80;;;;;;5033627;28;20392;-76
2022/12/17 20:19:25;;;;;;;;;;;-4.60;99.80;;;;;;5037335;28;19941;-75
2022/12/17 20:21:52;;;;;;;;;;;-4.50;99.80;;;;;;5038974;28;19929;-76
2022/12/17 20:24:18;;;;;;;;;;;-4.60;99.80;;;;;;5037958;28;19972;-76
2022/12/17 20:26:48;;;;;;;;;;;-4.60;99.80;;;;;;5035335;28;20477;-76
2022/12/17 20:29:15;;;;;;;;;;;-4.60;99.80;;;;;;5038260;28;19936;-76
2022/12/17 20:31:42;;;;;;;;;;;-4.60;99.80;;;;;;5036385;28;19928;-76
2022/12/17 20:34:11;;;;;;;;;;;-4.60;99.80;;;;;;5038998;28;19936;-75
2022/12/17 20:36:39;;;;;;;;;;;-4.60;99.80;;;;;;5038900;28;20411;-75
2022/12/17 20:39:05;;;;;;;;;;;-4.60;99.80;;;;;;5038232;28;19929;-76
2022/12/17 20:41:34;;;;;;;;;;;-4.70;99.80;;;;;;5038174;28;20325;-76
2022/12/17 20:44:03;;;;;;;;;;;-4.70;99.80;;;;;;5036352;28;19980;-76
2022/12/17 20:46:30;;;;;;;;;;;-4.70;99.80;;;;;;5037412;28;19929;-76
2022/12/17 20:48:58;;;;;;;;;;;-4.70;99.80;;;;;;5038191;28;19936;-76
2022/12/17 20:51:25;;;;;;;;;;;-4.70;99.80;;;;;;5036856;28;19936;-76
2022/12/17 20:53:52;;;;;;;;;;;-4.70;99.80;;;;;;5034918;28;20452;-76
2022/12/17 20:56:19;;;;;;;;;;;-4.70;99.80;;;;;;5037382;28;19936;-76
2022/12/17 20:58:46;;;;;;;;;;;-4.70;99.80;;;;;;5037082;28;19936;-75
2022/12/17 21:01:14;;;;;;;;;;;-4.80;99.70;;;;;;5029250;28;19928;-75
2022/12/17 21:03:42;;;;;;;;;;;-4.80;99.70;;;;;;5036179;28;20369;-75
2022/12/17 21:06:09;;;;;;;;;;;-4.80;99.70;;;;;;5035603;28;19929;-76
2022/12/17 21:08:36;;;;;;;;;;;-4.80;99.70;;;;;;5036200;28;19929;-76
2022/12/17 21:11:03;;;;;;;;;;;-4.80;99.70;;;;;;5034735;28;19932;-76
2022/12/17 21:13:29;;;;;;;;;;;-4.80;99.70;;;;;;5035635;28;19940;-76
2022/12/17 21:15:56;;;;;;;;;;;-4.80;99.70;;;;;;5037116;28;19929;-76
2022/12/17 21:18:25;;;;;;;;;;;-4.90;99.70;;;;;;5042510;28;20035;-76
2022/12/17 21:20:58;;;;;;;;;;;-4.90;99.70;;;;;;5039527;28;20468;-76
2022/12/17 21:23:24;;;;;;;;;;;-4.90;99.70;;;;;;5033119;28;19936;-75
2022/12/17 21:25:58;;;;;;;;;;;-4.90;99.70;;;;;;5041313;28;20449;-76
2022/12/17 21:28:25;;;;;;;;;;;-4.90;99.70;;;;;;5036182;28;19960;-75
2022/12/17 21:30:52;;;;;;;;;;;-4.90;99.70;;;;;;5037452;28;19940;-76
2022/12/17 21:33:18;;;;;;;;;;;-4.90;99.70;;;;;;5037208;28;20702;-75
2022/12/17 21:35:46;;;;;;;;;;;-4.90;99.70;;;;;;5040300;28;19939;-75
2022/12/17 21:38:13;;;;;;;;;;;-4.90;99.70;;;;;;5038768;28;19944;-75
2022/12/17 21:40:40;;;;;;;;;;;-5.00;99.60;;;;;;5035435;28;19960;-75
2022/12/17 21:43:06;;;;;;;;;;;-5.00;99.60;;;;;;5036196;28;19932;-75
2022/12/17 21:45:37;;;;;;;;;;;-5.00;99.60;;;;;;5040345;28;19928;-76
2022/12/17 21:48:03;;;;;;;;;;;-5.00;99.60;;;;;;5038632;28;19999;-75
2022/12/17 21:50:30;;;;;;;;;;;-5.00;99.60;;;;;;5039129;28;20405;-76
2022/12/17 21:52:58;;;;;;;;;;;-5.00;99.60;;;;;;5040267;28;19929;-75
2022/12/17 21:55:25;;;;;;;;;;;-5.00;99.60;;;;;;5037571;28;19936;-76
2022/12/17 21:57:51;;;;;;;;;;;-5.00;99.60;;;;;;5036924;28;19929;-74
2022/12/17 22:00:18;;;;;;;;;;;-5.10;99.60;;;;;;5036431;28;19928;-76
2022/12/17 22:02:45;;;;;;;;;;;-5.10;99.60;;;;;;5041721;28;19935;-75
2022/12/17 22:05:11;;;;;;;;;;;-5.10;99.90;;;;;;5042561;28;19928;-76
2022/12/17 22:07:38;;;;;;;;;;;-5.10;99.60;;;;;;5042866;28;20404;-75
2022/12/17 22:10:07;;;;;;;;;;;-5.10;99.60;;;;;;5042808;28;19929;-75
2022/12/17 22:15:17;;;;;;;;;;;-5.10;99.60;;;;;;5041224;28;19936;-75
2022/12/17 22:17:44;;;;;;;;;;;-5.10;99.60;;;;;;5040634;28;19959;-75
2022/12/17 22:20:11;;;;;;;;;;;-5.20;99.50;;;;;;5040127;28;19928;-75
2022/12/17 22:22:37;;;;;;;;;;;-5.20;99.50;;;;;;5042260;28;20761;-76
2022/12/17 22:25:06;;;;;;;;;;;-5.20;99.50;;;;;;5041297;28;19939;-76
2022/12/17 22:27:32;;;;;;;;;;;-5.20;99.50;;;;;;5042410;28;19932;-76
2022/12/17 22:33:01;;;;;;;;;;;-5.20;99.60;;;;;;5039401;28;20703;-75
2022/12/17 22:35:28;;;;;;;;;;;-5.20;99.50;;;;;;5041658;28;20365;-76
2022/12/17 22:37:55;;;;;;;;;;;-5.30;99.50;;;;;;5039560;28;19933;-75
2022/12/17 22:40:23;;;;;;;;;;;-5.30;99.50;;;;;;5041513;28;19929;-74
2022/12/17 22:45:33;;;;;;;;;;;-5.30;99.50;;;;;;5036369;28;20404;-75
2022/12/17 22:48:00;;;;;;;;;;;-5.30;99.50;;;;;;5040505;28;19932;-75
2022/12/17 22:50:27;;;;;;;;;;;-5.30;99.50;;;;;;5042281;28;19929;-76
2022/12/17 22:52:53;;;;;;;;;;;-5.30;99.50;;;;;;5042544;28;19932;-75
2022/12/17 22:55:20;;;;;;;;;;;-5.30;99.50;;;;;;5041486;28;19936;-75
2022/12/17 22:57:48;;;;;;;;;;;-5.30;99.50;;;;;;5041905;28;19929;-76
2022/12/17 23:00:15;;;;;;;;;;;-5.30;99.50;;;;;;5042627;28;19928;-75
2022/12/17 23:02:42;;;;;;;;;;;-5.40;99.50;;;;;;5038842;28;19929;-76
2022/12/17 23:05:09;;;;;;;;;;;-5.30;99.50;;;;;;5042369;28;20408;-75
2022/12/17 23:07:35;;;;;;;;;;;-5.40;99.50;;;;;;5041348;28;19932;-76
2022/12/17 23:10:02;;;;;;;;;;;-5.40;99.50;;;;;;5041550;28;19929;-75
2022/12/17 23:15:14;;;;;;;;;;;-5.40;99.50;;;;;;5041098;28;20065;-75
2022/12/17 23:17:40;;;;;;;;;;;-5.40;99.50;;;;;;5038188;28;19928;-74
2022/12/17 23:20:07;;;;;;;;;;;-5.50;99.40;;;;;;5040034;28;19925;-74
2022/12/17 23:22:34;;;;;;;;;;;-5.50;99.50;;;;;;5041117;28;19972;-77
2022/12/17 23:25:00;;;;;;;;;;;-5.50;99.50;;;;;;5038830;28;19933;-75
2022/12/17 23:27:27;;;;;;;;;;;-5.50;99.50;;;;;;5042146;28;19932;-74
2022/12/17 23:29:54;;;;;;;;;;;-5.50;99.50;;;;;;5041911;28;19936;-74
2022/12/17 23:32:22;;;;;;;;;;;-5.50;99.50;;;;;;5040352;28;19940;-75
2022/12/17 23:34:48;;;;;;;;;;;-5.50;99.50;;;;;;5039042;28;19933;-76
2022/12/17 23:37:15;;;;;;;;;;;-5.50;99.50;;;;;;5038120;28;19929;-77
2022/12/17 23:39:41;;;;;;;;;;;-5.50;99.50;;;;;;5036684;28;19929;-76
2022/12/17 23:42:08;;;;;;;;;;;-5.50;99.50;;;;;;5038799;28;19940;-77
2022/12/17 23:44:34;;;;;;;;;;;-5.50;99.50;;;;;;5037544;28;20626;-77
2022/12/17 23:47:01;;;;;;;;;;;-5.50;99.50;;;;;;5038687;28;20487;-76
2022/12/17 23:49:29;;;;;;;;;;;-5.60;99.50;;;;;;5038232;28;19929;-76
2022/12/17 23:51:55;;;;;;;;;;;-5.60;99.50;;;;;;5038638;28;19928;-76
2022/12/17 23:54:23;;;;;;;;;;;-5.60;99.50;;;;;;5039997;28;19929;-77
2022/12/17 23:56:49;;;;;;;;;;;-5.60;99.50;;;;;;5040665;28;20012;-77
2022/12/17 23:59:16;;;;;;;;;;;-5.60;99.50;;;;;;5041571;28;19929;-77
